createdAt,value
2022-12-29T00:02:02.689Z,4.95
2022-12-29T00:04:29.821Z,4.30
2022-12-29T00:06:56.805Z,6.63
2022-12-29T00:09:23.898Z,4.95
2022-12-29T00:11:54.384Z,4.65
2022-12-29T00:14:39.929Z,7.20
2022-12-29T00:17:06.786Z,4.97
2022-12-29T00:20:00.585Z,4.95
2022-12-29T00:22:46.085Z,4.88
2022-12-29T00:25:32.829Z,4.57
2022-12-29T00:28:18.512Z,5.25
2022-12-29T00:31:04.318Z,5.80
2022-12-29T00:33:52.372Z,5.38
2022-12-29T00:36:24.955Z,5.38
2022-12-29T00:39:19.604Z,6.47
2022-12-29T00:42:05.098Z,3.90
2022-12-29T00:44:31.964Z,6.22
2022-12-29T00:47:03.470Z,6.18
2022-12-29T00:49:33.743Z,6.20
2022-12-29T00:52:00.933Z,11.82
2022-12-29T00:54:29.936Z,5.93
2022-12-29T00:56:57.336Z,8.77
2022-12-29T00:59:25.579Z,7.72
2022-12-29T01:01:54.576Z,6.53
2022-12-29T01:04:23.677Z,7.07
2022-12-29T01:06:51.274Z,9.52
2022-12-29T01:09:37.747Z,6.82
2022-12-29T01:12:09.526Z,6.47
2022-12-29T01:14:37.333Z,7.07
2022-12-29T01:17:04.833Z,8.82
2022-12-29T01:19:32.140Z,7.97
2022-12-29T01:21:59.190Z,7.40
2022-12-29T01:24:27.242Z,7.28
2022-12-29T01:26:55.780Z,7.22
2022-12-29T01:29:23.275Z,8.93
2022-12-29T01:31:51.249Z,8.15
2022-12-29T01:34:18.744Z,8.02
2022-12-29T01:36:45.699Z,7.07
2022-12-29T01:39:12.978Z,9.60
2022-12-29T01:41:42.868Z,8.63
2022-12-29T01:44:47.157Z,6.75
2022-12-29T01:47:20.329Z,10.55
2022-12-29T01:49:47.466Z,13.45
2022-12-29T01:52:14.401Z,11.13
2022-12-29T01:54:50.885Z,8.88
2022-12-29T01:57:26.859Z,11.52
2022-12-29T02:00:14.898Z,12.90
2022-12-29T02:02:54.646Z,17.88
2022-12-29T02:05:30.270Z,19.88
2022-12-29T02:07:57.761Z,10.73
2022-12-29T02:10:27.181Z,10.00
2022-12-29T02:12:55.053Z,12.30
2022-12-29T02:15:42.835Z,10.25
2022-12-29T02:18:47.414Z,11.43
2022-12-29T02:21:42.348Z,9.88
2022-12-29T02:24:30.591Z,10.68
2022-12-29T02:27:09.761Z,10.80
2022-12-29T02:29:59.415Z,10.10
2022-12-29T02:32:49.228Z,10.00
2022-12-29T02:35:37.237Z,9.25
2022-12-29T02:38:13.133Z,11.18
2022-12-29T02:41:03.390Z,12.60
2022-12-29T02:44:07.660Z,13.95
2022-12-29T02:46:45.903Z,6.50
2022-12-29T02:49:19.031Z,14.50
2022-12-29T02:51:56.088Z,8.38
2022-12-29T02:54:41.572Z,9.63
2022-12-29T02:57:34.479Z,7.35
2022-12-29T03:00:18.394Z,9.40
2022-12-29T03:03:04.209Z,9.30
2022-12-29T03:05:36.923Z,8.30
2022-12-29T03:08:25.170Z,7.18
2022-12-29T03:11:28.711Z,7.10
2022-12-29T03:14:36.040Z,7.10
2022-12-29T03:17:20.087Z,6.10
2022-12-29T03:19:51.155Z,7.47
2022-12-29T03:22:34.041Z,8.52
2022-12-29T03:25:13.064Z,6.18
2022-12-29T03:27:45.763Z,6.38
2022-12-29T03:30:13.598Z,5.57
2022-12-29T03:32:48.232Z,5.35
2022-12-29T03:35:18.894Z,6.13
2022-12-29T03:37:52.803Z,6.40
2022-12-29T03:40:22.916Z,19.30
2022-12-29T03:42:50.472Z,7.90
2022-12-29T03:45:18.334Z,7.38
2022-12-29T03:47:45.395Z,6.20
2022-12-29T03:50:13.548Z,5.00
2022-12-29T03:52:41.330Z,5.78
2022-12-29T03:55:08.710Z,5.00
2022-12-29T03:57:35.740Z,5.47
2022-12-29T04:00:05.877Z,5.53
2022-12-29T04:02:33.070Z,5.80
2022-12-29T04:05:00.057Z,4.20
2022-12-29T04:07:27.026Z,4.53
2022-12-29T04:09:54.106Z,5.30
2022-12-29T04:12:20.898Z,5.43
2022-12-29T04:14:47.863Z,5.45
2022-12-29T04:17:14.787Z,5.95
2022-12-29T04:19:41.940Z,5.25
2022-12-29T04:22:08.781Z,6.35
2022-12-29T04:24:35.861Z,4.75
2022-12-29T04:27:02.819Z,7.18
2022-12-29T04:29:29.804Z,6.15
2022-12-29T04:31:56.657Z,4.28
2022-12-29T04:34:23.467Z,4.90
2022-12-29T04:36:50.454Z,5.15
2022-12-29T04:39:17.506Z,5.47
2022-12-29T04:41:45.169Z,4.85
2022-12-29T04:44:12.085Z,3.85
2022-12-29T04:46:39.204Z,4.32
2022-12-29T04:49:09.969Z,4.75
2022-12-29T04:51:37.243Z,3.85
2022-12-29T04:54:04.404Z,4.88
2022-12-29T04:56:31.390Z,4.63
2022-12-29T04:58:58.456Z,3.88
2022-12-29T05:01:25.473Z,4.68
2022-12-29T05:03:53.155Z,4.70
2022-12-29T05:06:20.430Z,4.88
2022-12-29T05:08:47.629Z,3.70
2022-12-29T05:11:14.548Z,4.20
2022-12-29T05:13:41.396Z,6.18
2022-12-29T05:16:08.466Z,3.50
2022-12-29T05:18:35.510Z,4.45
2022-12-29T05:21:02.382Z,3.83
2022-12-29T05:23:29.737Z,3.72
2022-12-29T05:25:57.029Z,3.70
2022-12-29T05:28:23.832Z,4.75
2022-12-29T05:30:52.232Z,4.10
2022-12-29T05:33:20.148Z,4.32
2022-12-29T05:35:47.263Z,4.32
2022-12-29T05:38:14.419Z,4.10
2022-12-29T05:40:41.518Z,4.50
2022-12-29T05:43:08.406Z,4.68
2022-12-29T05:45:35.283Z,5.60
2022-12-29T05:48:02.100Z,5.70
2022-12-29T05:50:29.277Z,5.47
2022-12-29T05:52:56.184Z,7.25
2022-12-29T05:55:23.099Z,7.25
2022-12-29T05:57:50.069Z,9.73
2022-12-29T06:00:17.324Z,13.43
2022-12-29T06:02:44.411Z,14.43
2022-12-29T06:05:11.639Z,10.68
2022-12-29T06:07:38.506Z,28.05
2022-12-29T06:10:07.413Z,18.80
2022-12-29T06:12:34.297Z,23.67
2022-12-29T06:15:01.255Z,32.50
2022-12-29T06:17:28.238Z,14.95
2022-12-29T06:19:55.132Z,15.00
2022-12-29T06:22:22.188Z,25.95
2022-12-29T06:24:49.117Z,7.80
2022-12-29T06:27:16.114Z,9.55
2022-12-29T06:29:44.445Z,9.90
2022-12-29T06:32:11.893Z,9.60
2022-12-29T06:34:38.886Z,9.65
2022-12-29T06:37:05.853Z,12.32
2022-12-29T06:39:32.875Z,13.25
2022-12-29T06:42:00.331Z,7.32
2022-12-29T06:44:27.310Z,5.20
2022-12-29T06:46:54.267Z,6.25
2022-12-29T06:49:21.731Z,5.40
2022-12-29T06:51:48.656Z,4.45
2022-12-29T06:54:15.584Z,4.72
2022-12-29T06:56:42.563Z,5.72
2022-12-29T06:59:10.648Z,5.72
2022-12-29T07:01:37.733Z,5.38
2022-12-29T07:04:05.235Z,6.05
2022-12-29T07:06:32.269Z,5.68
2022-12-29T07:08:59.320Z,7.53
2022-12-29T07:11:26.319Z,6.72
2022-12-29T07:13:53.168Z,6.55
2022-12-29T07:16:20.229Z,7.22
2022-12-29T07:18:47.439Z,8.38
2022-12-29T07:21:14.477Z,6.47
2022-12-29T07:23:41.545Z,6.57
2022-12-29T07:26:11.329Z,5.60
2022-12-29T07:28:39.306Z,6.03
2022-12-29T07:31:07.587Z,6.10
2022-12-29T07:33:34.519Z,4.65
2022-12-29T07:36:01.644Z,5.10
2022-12-29T07:38:28.570Z,4.65
2022-12-29T07:40:59.366Z,5.15
2022-12-29T07:43:26.885Z,4.85
2022-12-29T07:45:53.842Z,5.22
2022-12-29T07:48:20.801Z,4.82
2022-12-29T07:50:47.691Z,5.00
2022-12-29T07:53:14.816Z,4.88
2022-12-29T07:55:41.961Z,5.13
2022-12-29T07:58:08.949Z,5.53
2022-12-29T08:00:35.807Z,5.13
2022-12-29T08:03:02.519Z,5.57
2022-12-29T08:05:29.439Z,6.72
2022-12-29T08:07:56.394Z,5.35
2022-12-29T08:10:25.870Z,4.85
2022-12-29T08:12:53.156Z,4.80
2022-12-29T08:15:20.032Z,5.18
2022-12-29T08:17:47.077Z,5.03
2022-12-29T08:20:14.000Z,5.68
2022-12-29T08:22:41.717Z,5.07
2022-12-29T08:25:09.208Z,4.90
2022-12-29T08:27:36.176Z,5.07
2022-12-29T08:30:04.166Z,5.78
2022-12-29T08:32:31.121Z,5.45
2022-12-29T08:34:58.101Z,5.63
2022-12-29T08:37:30.733Z,5.15
2022-12-29T08:39:59.037Z,4.93
2022-12-29T08:42:30.104Z,5.05
2022-12-29T08:44:57.051Z,5.53
2022-12-29T08:47:24.140Z,4.85
2022-12-29T08:49:51.124Z,4.05
2022-12-29T08:52:18.403Z,3.50
2022-12-29T08:54:45.466Z,4.07
2022-12-29T08:57:12.541Z,3.38
2022-12-29T08:59:39.549Z,3.33
2022-12-29T09:02:07.310Z,3.05
2022-12-29T09:04:34.710Z,2.85
2022-12-29T09:07:01.738Z,2.70
2022-12-29T09:09:30.761Z,2.50
2022-12-29T09:11:57.639Z,3.08
2022-12-29T09:14:24.727Z,2.58
2022-12-29T09:17:13.820Z,2.08
2022-12-29T09:19:40.890Z,1.88
2022-12-29T09:22:07.863Z,1.90
2022-12-29T09:24:34.816Z,2.05
2022-12-29T09:27:01.986Z,1.95
2022-12-29T09:29:28.887Z,1.80
2022-12-29T09:31:56.082Z,1.95
2022-12-29T09:34:23.257Z,1.75
2022-12-29T09:36:51.115Z,1.90
2022-12-29T09:39:18.164Z,1.73
2022-12-29T09:42:00.116Z,1.42
2022-12-29T09:44:57.607Z,1.90
2022-12-29T09:47:26.438Z,1.73
2022-12-29T09:50:28.663Z,1.73
2022-12-29T09:53:01.629Z,1.98
2022-12-29T09:55:38.176Z,1.77
2022-12-29T09:58:26.695Z,2.10
2022-12-29T10:01:06.404Z,1.70
2022-12-29T10:03:51.541Z,2.10
2022-12-29T10:06:27.097Z,2.50
2022-12-29T10:09:26.727Z,2.10
2022-12-29T10:12:08.832Z,2.20
2022-12-29T10:14:44.837Z,2.28
2022-12-29T10:17:49.152Z,2.20
2022-12-29T10:20:18.810Z,1.83
2022-12-29T10:22:58.034Z,2.47
2022-12-29T10:25:31.063Z,1.98
2022-12-29T10:30:30.117Z,2.38
2022-12-29T10:33:00.044Z,2.08
2022-12-29T10:35:33.355Z,2.15
2022-12-29T10:38:12.726Z,2.38
2022-12-29T10:40:45.137Z,2.35
2022-12-29T10:43:27.186Z,2.60
2022-12-29T10:46:18.677Z,2.75
2022-12-29T10:48:47.951Z,2.90
2022-12-29T10:51:39.593Z,2.70
2022-12-29T10:54:16.025Z,2.50
2022-12-29T10:57:15.720Z,2.65
2022-12-29T10:59:43.045Z,2.35
2022-12-29T11:02:13.074Z,2.78
2022-12-29T11:04:43.066Z,3.20
2022-12-29T11:07:15.884Z,2.60
2022-12-29T11:09:45.536Z,2.78
2022-12-29T11:12:32.376Z,3.08
2022-12-29T11:15:17.664Z,2.65
2022-12-29T11:17:50.586Z,2.60
2022-12-29T11:20:28.016Z,2.50
2022-12-29T11:22:55.211Z,3.17
2022-12-29T11:25:22.247Z,2.50
2022-12-29T11:28:17.177Z,2.83
2022-12-29T11:30:44.520Z,3.73
2022-12-29T11:33:11.554Z,2.60
2022-12-29T11:35:42.433Z,2.63
2022-12-29T11:38:24.498Z,2.53
2022-12-29T11:40:51.894Z,2.70
2022-12-29T11:43:34.809Z,2.88
2022-12-29T11:46:05.845Z,2.50
2022-12-29T11:48:43.450Z,2.80
2022-12-29T11:51:12.742Z,2.45
2022-12-29T11:53:52.879Z,2.83
2022-12-29T11:56:41.244Z,2.30
2022-12-29T11:59:39.337Z,2.63
2022-12-29T12:02:21.565Z,2.72
2022-12-29T12:04:52.479Z,2.78
2022-12-29T12:07:24.204Z,2.67
2022-12-29T12:10:07.736Z,2.78
2022-12-29T12:12:48.295Z,2.40
2022-12-29T12:15:22.279Z,2.47
2022-12-29T12:18:00.853Z,2.50
2022-12-29T12:20:39.421Z,2.60
2022-12-29T12:23:19.950Z,2.65
2022-12-29T12:25:51.708Z,2.90
2022-12-29T12:28:36.757Z,2.75
2022-12-29T12:33:44.058Z,2.63
2022-12-29T12:36:19.982Z,2.95
2022-12-29T12:38:46.921Z,2.70
2022-12-29T12:41:21.885Z,2.72
2022-12-29T12:44:25.122Z,3.05
2022-12-29T12:47:27.127Z,2.50
2022-12-29T12:50:20.375Z,2.83
2022-12-29T12:53:24.606Z,3.25
2022-12-29T12:56:00.646Z,3.45
2022-12-29T12:59:22.872Z,3.25
2022-12-29T13:02:34.710Z,3.03
2022-12-29T13:05:27.069Z,3.55
2022-12-29T13:08:34.368Z,3.22
2022-12-29T13:11:13.394Z,3.00
2022-12-29T13:13:57.068Z,3.20
2022-12-29T13:16:39.796Z,2.83
2022-12-29T13:19:25.707Z,2.97
2022-12-29T13:22:11.370Z,3.10
2022-12-29T13:24:47.363Z,3.15
2022-12-29T13:27:37.910Z,4.13
2022-12-29T13:30:11.660Z,3.25
2022-12-29T13:32:46.761Z,3.60
2022-12-29T13:38:25.599Z,3.70
2022-12-29T13:40:57.966Z,3.58
2022-12-29T13:43:28.503Z,3.60
2022-12-29T13:46:15.880Z,3.60
2022-12-29T13:48:58.630Z,3.60
2022-12-29T13:51:28.504Z,3.13
2022-12-29T13:54:43.238Z,3.70
2022-12-29T13:57:40.405Z,3.00
2022-12-29T14:00:20.548Z,2.95
2022-12-29T14:02:47.727Z,3.28
2022-12-29T14:05:29.009Z,3.15
2022-12-29T14:08:05.501Z,2.55
2022-12-29T14:10:49.354Z,3.03
2022-12-29T14:13:27.533Z,2.90
2022-12-29T14:16:00.150Z,4.10
2022-12-29T14:18:41.974Z,3.55
2022-12-29T14:21:15.072Z,4.28
2022-12-29T14:23:44.768Z,4.45
2022-12-29T14:26:16.254Z,4.10
2022-12-29T14:28:48.606Z,4.10
2022-12-29T14:31:15.351Z,3.90
2022-12-29T14:34:02.991Z,4.13
2022-12-29T14:36:42.857Z,4.60
2022-12-29T14:39:28.755Z,4.25
2022-12-29T14:42:20.082Z,4.13
2022-12-29T14:44:56.878Z,4.53
2022-12-29T14:47:32.721Z,4.30
2022-12-29T14:50:08.133Z,4.15
2022-12-29T14:53:03.603Z,4.03
2022-12-29T14:55:51.149Z,4.72
2022-12-29T14:58:47.412Z,4.55
2022-12-29T15:01:39.257Z,3.95
2022-12-29T15:04:18.226Z,4.47
2022-12-29T15:06:47.106Z,4.22
2022-12-29T15:09:34.817Z,4.40
2022-12-29T15:12:21.616Z,4.10
2022-12-29T15:14:57.140Z,4.10
2022-12-29T15:17:35.612Z,4.65
2022-12-29T15:20:18.484Z,3.92
2022-12-29T15:22:47.740Z,4.30
2022-12-29T15:25:18.885Z,4.25
2022-12-29T15:27:59.366Z,4.45
2022-12-29T15:30:26.434Z,3.95
2022-12-29T15:32:54.075Z,4.13
2022-12-29T15:35:38.287Z,4.50
2022-12-29T15:38:17.958Z,4.25
2022-12-29T15:40:46.234Z,4.72
2022-12-29T15:43:46.907Z,4.10
2022-12-29T15:46:15.135Z,4.28
2022-12-29T15:48:42.411Z,4.57
2022-12-29T15:51:20.209Z,4.50
2022-12-29T15:53:51.490Z,4.20
2022-12-29T15:56:19.235Z,4.55
2022-12-29T15:58:52.178Z,4.05
2022-12-29T16:01:31.947Z,5.07
2022-12-29T16:04:01.116Z,5.05
2022-12-29T16:06:45.775Z,4.50
2022-12-29T16:09:29.540Z,5.10
2022-12-29T16:12:00.476Z,4.90
2022-12-29T16:14:46.277Z,4.30
2022-12-29T16:17:24.481Z,4.72
2022-12-29T16:19:54.814Z,4.90
2022-12-29T16:22:32.488Z,4.30
2022-12-29T16:25:05.065Z,4.50
2022-12-29T16:27:43.472Z,4.85
2022-12-29T16:30:33.543Z,4.57
2022-12-29T16:33:04.113Z,4.35
2022-12-29T16:35:48.048Z,4.43
2022-12-29T16:38:22.529Z,4.13
2022-12-29T16:40:59.550Z,4.60
2022-12-29T16:43:32.734Z,4.50
2022-12-29T16:45:59.489Z,4.05
2022-12-29T16:48:30.143Z,4.28
2022-12-29T16:51:14.221Z,3.80
2022-12-29T16:53:43.867Z,3.35
2022-12-29T16:56:18.189Z,3.88
2022-12-29T16:58:57.147Z,4.00
2022-12-29T17:01:24.290Z,4.22
2022-12-29T17:03:54.947Z,3.95
2022-12-29T17:06:23.836Z,4.47
2022-12-29T17:08:52.032Z,3.50
2022-12-29T17:11:58.510Z,4.20
2022-12-29T17:14:41.507Z,4.00
2022-12-29T17:17:20.947Z,3.63
2022-12-29T17:19:51.559Z,3.30
2022-12-29T17:22:29.424Z,2.55
2022-12-29T17:24:58.585Z,3.42
2022-12-29T17:27:33.041Z,3.20
2022-12-29T17:30:17.878Z,4.07
2022-12-29T17:32:49.861Z,3.63
2022-12-29T17:35:18.972Z,3.33
2022-12-29T17:37:45.991Z,3.50
2022-12-29T17:40:18.536Z,5.03
2022-12-29T17:42:48.304Z,4.25
2022-12-29T17:45:28.256Z,3.63
2022-12-29T17:47:55.973Z,3.83
2022-12-29T17:50:26.214Z,3.40
2022-12-29T17:53:00.634Z,3.83
2022-12-29T17:55:36.706Z,3.35
2022-12-29T17:58:18.514Z,3.35
2022-12-29T18:00:47.199Z,3.40
2022-12-29T18:03:35.826Z,3.10
2022-12-29T18:06:06.641Z,3.38
2022-12-29T18:08:35.600Z,3.40
2022-12-29T18:11:02.784Z,3.55
2022-12-29T18:13:43.982Z,3.10
2022-12-29T18:16:13.623Z,4.22
2022-12-29T18:18:40.580Z,3.58
2022-12-29T18:21:14.440Z,3.08
2022-12-29T18:23:42.114Z,3.13
2022-12-29T18:26:27.768Z,3.10
2022-12-29T18:28:56.098Z,3.33
2022-12-29T18:31:28.094Z,3.40
2022-12-29T18:33:57.060Z,3.50
2022-12-29T18:36:24.580Z,3.45
2022-12-29T18:38:53.443Z,3.65
2022-12-29T18:41:26.322Z,3.38
2022-12-29T18:43:53.338Z,3.20
2022-12-29T18:46:23.041Z,3.78
2022-12-29T18:48:51.224Z,3.50
2022-12-29T18:51:23.594Z,3.85
2022-12-29T18:53:54.373Z,3.17
2022-12-29T18:56:23.062Z,3.50
2022-12-29T18:58:50.644Z,3.70
2022-12-29T19:01:23.121Z,3.67
2022-12-29T19:03:50.299Z,3.67
2022-12-29T19:06:17.631Z,3.15
2022-12-29T19:08:44.638Z,3.28
2022-12-29T19:11:11.622Z,3.00
2022-12-29T19:13:38.687Z,3.00
2022-12-29T19:16:08.786Z,3.13
2022-12-29T19:18:45.304Z,3.35
2022-12-29T19:21:13.638Z,4.25
2022-12-29T19:23:40.475Z,2.90
2022-12-29T19:26:07.404Z,3.25
2022-12-29T19:28:34.374Z,3.45
2022-12-29T19:31:02.977Z,2.97
2022-12-29T19:33:30.332Z,3.42
2022-12-29T19:36:02.582Z,3.70
2022-12-29T19:38:29.991Z,2.95
2022-12-29T19:40:57.027Z,2.60
2022-12-29T19:43:24.225Z,2.60
2022-12-29T19:45:52.525Z,3.03
2022-12-29T19:48:21.174Z,2.70
2022-12-29T19:50:48.352Z,2.72
2022-12-29T19:53:16.196Z,3.08
2022-12-29T19:55:48.985Z,3.08
2022-12-29T19:58:16.052Z,2.90
2022-12-29T20:00:43.902Z,2.63
2022-12-29T20:03:11.430Z,2.92
2022-12-29T20:05:39.800Z,3.47
2022-12-29T20:08:06.721Z,3.22
2022-12-29T20:10:33.764Z,2.90
2022-12-29T20:13:00.577Z,3.17
2022-12-29T20:15:27.584Z,3.13
2022-12-29T20:20:41.763Z,2.95
2022-12-29T20:23:08.679Z,2.75
2022-12-29T20:25:50.888Z,3.08
2022-12-29T20:28:17.707Z,2.80
2022-12-29T20:30:44.690Z,3.10
2022-12-29T20:33:12.838Z,2.83
2022-12-29T20:35:39.825Z,3.00
2022-12-29T20:38:09.775Z,3.10
2022-12-29T20:40:44.109Z,3.08
2022-12-29T20:43:15.390Z,3.38
2022-12-29T20:45:42.768Z,2.80
2022-12-29T20:48:10.008Z,2.97
2022-12-29T20:50:37.178Z,2.95
2022-12-29T20:53:04.347Z,3.13
2022-12-29T20:55:31.368Z,4.15
2022-12-29T20:58:23.279Z,3.13
2022-12-29T21:00:45.766Z,3.30
2022-12-29T21:03:12.805Z,2.72
2022-12-29T21:05:39.868Z,3.35
2022-12-29T21:08:06.944Z,3.90
2022-12-29T21:10:34.113Z,2.92
2022-12-29T21:13:01.796Z,3.38
2022-12-29T21:15:30.248Z,2.92
2022-12-29T21:17:57.139Z,3.10
2022-12-29T21:20:30.399Z,3.00
2022-12-29T21:23:00.194Z,3.30
2022-12-29T21:25:37.260Z,3.08
2022-12-29T21:28:12.410Z,2.72
2022-12-29T21:30:39.385Z,2.63
2022-12-29T21:33:06.782Z,2.67
2022-12-29T21:35:38.651Z,3.78
2022-12-29T21:38:07.164Z,2.90
2022-12-29T21:40:35.720Z,2.75
2022-12-29T21:43:02.921Z,2.75
2022-12-29T21:45:33.063Z,3.30
2022-12-29T21:48:19.829Z,3.53
2022-12-29T21:51:30.429Z,2.90
2022-12-29T21:54:20.649Z,2.90
2022-12-29T21:56:49.088Z,3.13
2022-12-29T21:59:35.464Z,3.00
2022-12-29T22:02:23.010Z,2.70
2022-12-29T22:05:09.056Z,2.95
2022-12-29T22:07:55.317Z,2.80
2022-12-29T22:10:40.646Z,2.28
2022-12-29T22:15:37.438Z,2.40
2022-12-29T22:18:05.266Z,2.50
2022-12-29T22:20:34.893Z,2.60
2022-12-29T22:23:02.460Z,2.50
2022-12-29T22:25:29.579Z,3.33
2022-12-29T22:27:59.461Z,2.55
2022-12-29T22:30:28.152Z,2.70
2022-12-29T22:32:57.591Z,2.35
2022-12-29T22:35:25.245Z,2.78
2022-12-29T22:37:52.267Z,2.78
2022-12-29T22:40:19.448Z,3.08
2022-12-29T22:42:46.356Z,2.75
2022-12-29T22:45:13.366Z,2.20
2022-12-29T22:47:40.376Z,2.10
2022-12-29T22:50:07.542Z,3.30
2022-12-29T22:52:34.565Z,2.60
2022-12-29T22:55:06.529Z,2.22
2022-12-29T22:57:35.261Z,2.45
2022-12-29T23:00:02.644Z,2.78
2022-12-29T23:02:30.596Z,2.85
2022-12-29T23:05:05.764Z,2.53
2022-12-29T23:07:34.877Z,2.55
2022-12-29T23:10:02.843Z,2.35
2022-12-29T23:12:31.330Z,2.75
2022-12-29T23:14:59.228Z,2.20
2022-12-29T23:17:26.774Z,2.92
2022-12-29T23:19:53.828Z,3.70
2022-12-29T23:22:20.850Z,2.28
2022-12-29T23:24:47.870Z,2.30
2022-12-29T23:27:14.877Z,2.55
2022-12-29T23:29:41.801Z,2.83
2022-12-29T23:32:08.853Z,2.83
2022-12-29T23:34:35.819Z,2.45
2022-12-29T23:37:02.816Z,2.20
2022-12-29T23:39:29.925Z,2.15
2022-12-29T23:41:57.779Z,2.28
2022-12-29T23:44:24.701Z,2.25
2022-12-29T23:46:51.781Z,2.33
2022-12-29T23:49:19.034Z,1.70
2022-12-29T23:51:45.958Z,2.42
2022-12-29T23:54:12.939Z,2.10
2022-12-29T23:56:39.941Z,2.08
2022-12-29T23:59:07.016Z,2.50
